Time;durP1;ratioP1;P1;durP2;ratioP2;P2;SDS_P1;SDS_P2;PMS_P1;PMS_P2;Temp;Humidity;BMP_temperature;BMP_pressure;BME280_temperature;BME280_humidity;BME280_pressure;Samples;Min_cycle;Max_cycle;Signal;HPM_P1;HPM_P2
2022/08/03 00:01:43;;;;;;;0.08;0.08;;;;;;;21.24;100.00;99272.19;7394520;19;20006;-55
2022/08/03 00:04:10;;;;;;;0.10;0.00;;;;;;;21.23;100.00;99261.41;7393992;19;20014;-55
2022/08/03 00:06:37;;;;;;;0.00;0.00;;;;;;;21.18;100.00;99259.53;7395625;19;20018;-55
2022/08/03 00:09:04;;;;;;;0.03;0.03;;;;;;;21.24;100.00;99255.22;7392446;19;20014;-54
2022/08/03 00:11:30;;;;;;;0.00;0.00;;;;;;;21.26;100.00;99260.31;7393843;19;20066;-55
2022/08/03 00:13:57;;;;;;;0.30;0.10;;;;;;;21.24;100.00;99269.38;7392673;19;20014;-55
2022/08/03 00:16:26;;;;;;;0.10;0.10;;;;;;;21.20;100.00;99251.22;7392461;19;20017;-55
2022/08/03 00:18:52;;;;;;;0.00;0.00;;;;;;;21.17;100.00;99253.13;7393882;19;20013;-55
2022/08/03 00:21:18;;;;;;;0.10;0.00;;;;;;;21.13;100.00;99247.81;7392882;19;20605;-55
2022/08/03 00:23:44;;;;;;;1.65;0.30;;;;;;;21.11;100.00;99238.38;7394062;19;20471;-54
2022/08/03 00:26:10;;;;;;;1.27;0.10;;;;;;;21.11;100.00;99229.88;7393111;19;20047;-55
2022/08/03 00:28:36;;;;;;;0.17;0.00;;;;;;;21.06;100.00;99225.91;7395432;19;20014;-56
2022/08/03 00:31:03;;;;;;;0.10;0.10;;;;;;;21.07;100.00;99235.91;7393173;19;20086;-56
2022/08/03 00:33:29;;;;;;;0.00;0.00;;;;;;;21.02;100.00;99236.81;7392595;19;20029;-56
2022/08/03 00:35:55;;;;;;;0.40;0.00;;;;;;;20.99;100.00;99232.28;7391075;19;20397;-55
2022/08/03 00:38:21;;;;;;;0.00;0.00;;;;;;;21.00;100.00;99250.03;7391993;19;20015;-56
2022/08/03 00:40:47;;;;;;;0.00;0.00;;;;;;;21.00;100.00;99255.69;7392181;19;20014;-56
2022/08/03 00:43:14;;;;;;;0.00;0.00;;;;;;;20.96;100.00;99244.72;7391907;19;20035;-56
2022/08/03 00:45:41;;;;;;;0.15;0.03;;;;;;;20.87;100.00;99239.63;7392154;19;20574;-56
2022/08/03 00:48:10;;;;;;;0.57;0.10;;;;;;;20.82;100.00;99239.78;7392398;19;20158;-55
2022/08/03 00:50:41;;;;;;;0.03;0.00;;;;;;;20.80;100.00;99226.19;7392201;19;20455;-55
2022/08/03 00:53:13;;;;;;;0.03;0.03;;;;;;;20.79;100.00;99227.50;7392526;19;20045;-55
2022/08/03 00:55:40;;;;;;;0.00;0.00;;;;;;;20.77;100.00;99218.81;7391170;19;20074;-55
2022/08/03 00:58:07;;;;;;;0.20;0.10;;;;;;;20.76;100.00;99225.81;7392984;19;20385;-56
2022/08/03 01:00:37;;;;;;;0.00;0.00;;;;;;;20.77;100.00;99210.31;7395077;19;20352;-55
2022/08/03 01:03:05;;;;;;;0.10;0.10;;;;;;;20.76;100.00;99220.16;7392323;19;20011;-55
2022/08/03 01:06:00;;;;;;;0.05;0.00;;;;;;;20.82;100.00;99217.88;7391685;19;20046;-54
2022/08/03 01:08:46;;;;;;;0.00;0.00;;;;;;;20.86;100.00;99218.28;7390585;19;20011;-54
2022/08/03 01:11:37;;;;;;;0.00;0.00;;;;;;;20.89;100.00;99214.34;7391827;19;20066;-55
2022/08/03 01:14:12;;;;;;;;;;;;;;;20.84;100.00;99226.56;7391317;19;20566;-54
2022/08/03 01:16:51;;;;;;;0.00;0.00;;;;;;;20.83;100.00;99213.75;7392641;19;19918;-54
2022/08/03 01:19:32;;;;;;;0.32;0.20;;;;;;;20.78;100.00;99211.84;7389158;19;20021;-55
2022/08/03 01:22:09;;;;;;;0.30;0.10;;;;;;;20.76;100.00;99208.81;7390914;19;20030;-54
2022/08/03 01:24:53;;;;;;;0.00;0.00;;;;;;;20.73;100.00;99215.59;7390521;19;20066;-54
2022/08/03 01:27:47;;;;;;;0.10;0.00;;;;;;;20.71;100.00;99212.56;7393962;19;20031;-55
2022/08/03 01:30:13;;;;;;;0.00;0.00;;;;;;;20.72;100.00;99214.09;7394556;19;20014;-54
2022/08/03 01:32:47;;;;;;;0.00;0.00;;;;;;;20.72;100.00;99216.94;7392945;19;20449;-56
2022/08/03 01:35:16;;;;;;;0.00;0.00;;;;;;;20.70;100.00;99228.06;7394292;19;20078;-55
2022/08/03 01:37:49;;;;;;;0.10;0.10;;;;;;;20.75;100.00;99217.84;7395548;19;20074;-54
2022/08/03 01:40:18;;;;;;;0.00;0.00;;;;;;;20.75;100.00;99223.50;7391244;19;20007;-55
2022/08/03 01:42:46;;;;;;;0.10;0.00;;;;;;;20.73;100.00;99215.59;7391039;19;20365;-54
2022/08/03 01:45:17;;;;;;;0.00;0.00;;;;;;;20.70;100.00;99211.06;7389962;19;20035;-55
2022/08/03 01:47:45;;;;;;;0.00;0.00;;;;;;;20.70;100.00;99219.56;7391682;19;20402;-55
2022/08/03 01:50:12;;;;;;;0.00;0.00;;;;;;;20.69;100.00;99226.53;7387951;19;20015;-55
2022/08/03 01:52:41;;;;;;;10.98;0.20;;;;;;;20.70;100.00;99224.47;7390512;19;20018;-55
2022/08/03 01:55:09;;;;;;;0.00;0.00;;;;;;;20.64;100.00;99224.63;7389224;19;20030;-55
2022/08/03 01:57:38;;;;;;;1.00;0.03;;;;;;;20.62;100.00;99229.34;7392834;19;20006;-55
2022/08/03 02:00:08;;;;;;;0.00;0.00;;;;;;;20.66;100.00;99221.97;7394500;19;20010;-54
2022/08/03 02:02:38;;;;;;;0.00;0.00;;;;;;;20.66;100.00;99227.63;7389381;19;20018;-55
2022/08/03 02:05:07;;;;;;;0.00;0.00;;;;;;;20.74;100.00;99234.09;7391045;19;20078;-55
2022/08/03 02:07:34;;;;;;;0.35;0.35;;;;;;;20.70;100.00;99239.38;7394241;19;20070;-53
2022/08/03 02:10:04;;;;;;;0.00;0.00;;;;;;;20.75;100.00;99227.09;7387054;19;20086;-54
2022/08/03 02:12:32;;;;;;;0.00;0.00;;;;;;;20.76;100.00;99228.63;7388682;19;20625;-55
2022/08/03 02:15:00;;;;;;;0.15;0.15;;;;;;;20.83;100.00;99225.06;7387841;19;20037;-55
2022/08/03 02:17:28;;;;;;;0.00;0.00;;;;;;;20.81;100.00;99222.03;7393367;19;20059;-55
2022/08/03 02:19:58;;;;;;;0.00;0.00;;;;;;;20.80;100.00;99214.88;7390353;19;20011;-55
2022/08/03 02:22:26;;;;;;;0.00;0.00;;;;;;;20.79;100.00;99230.31;7390331;19;20014;-54
2022/08/03 02:24:52;;;;;;;0.13;0.03;;;;;;;20.83;100.00;99225.06;7389426;19;20024;-55
2022/08/03 02:27:22;;;;;;;0.00;0.00;;;;;;;20.79;100.00;99224.66;7388811;19;20031;-55
2022/08/03 02:29:53;;;;;;;0.00;0.00;;;;;;;20.73;100.00;99224.09;7392386;19;20042;-55
2022/08/03 02:32:28;;;;;;;5.38;0.10;;;;;;;20.72;100.00;99222.59;7388502;19;20021;-54
2022/08/03 02:34:56;;;;;;;0.00;0.00;;;;;;;20.73;100.00;99226.91;7388353;19;20018;-55
2022/08/03 02:37:27;;;;;;;0.25;0.00;;;;;;;20.71;100.00;99223.13;7392157;19;20407;-55
2022/08/03 02:40:01;;;;;;;0.00;0.00;;;;;;;20.66;100.00;99227.63;7389218;19;20011;-55
2022/08/03 02:42:29;;;;;;;0.00;0.00;;;;;;;20.60;100.00;99218.56;7388371;19;20014;-55
2022/08/03 02:44:57;;;;;;;0.50;0.20;;;;;;;20.52;100.00;99226.28;7389033;19;20372;-55
2022/08/03 02:47:26;;;;;;;0.40;0.10;;;;;;;20.49;100.00;99221.00;7391905;19;20017;-55
2022/08/03 02:49:54;;;;;;;1.13;0.65;;;;;;;20.47;100.00;99224.34;7388786;19;20478;-55
2022/08/03 02:52:22;;;;;;;5.57;0.13;;;;;;;20.46;100.00;99225.69;7389152;19;20015;-55
2022/08/03 02:54:53;;;;;;;5.10;0.75;;;;;;;20.45;100.00;99227.00;7388648;19;20031;-56
2022/08/03 02:57:21;;;;;;;1.27;0.13;;;;;;;20.44;100.00;99239.63;7391731;19;20039;-55
2022/08/03 02:59:49;;;;;;;0.00;0.00;;;;;;;20.44;100.00;99239.63;7392654;19;20412;-55
2022/08/03 03:02:16;;;;;;;0.00;0.00;;;;;;;20.42;100.00;99242.28;7388881;19;20026;-55
2022/08/03 03:04:44;;;;;;;0.00;0.00;;;;;;;20.38;100.00;99236.19;7387576;19;20011;-55
2022/08/03 03:07:14;;;;;;;0.00;0.00;;;;;;;20.37;100.00;99241.13;7391388;19;20036;-55
2022/08/03 03:09:41;;;;;;;0.00;0.00;;;;;;;20.34;100.00;99235.81;7387957;19;20468;-55
2022/08/03 03:12:09;;;;;;;0.10;0.00;;;;;;;20.36;100.00;99233.16;7388950;19;20006;-56
2022/08/03 03:14:36;;;;;;;0.00;0.00;;;;;;;20.25;100.00;99237.06;7387611;19;20468;-55
2022/08/03 03:17:05;;;;;;;0.00;0.00;;;;;;;20.19;100.00;99247.75;7390861;19;20010;-55
2022/08/03 03:19:32;;;;;;;0.10;0.00;;;;;;;20.20;100.00;99242.88;7388652;19;20467;-55
2022/08/03 03:22:05;;;;;;;0.30;0.10;;;;;;;20.18;100.00;99239.84;7388226;19;20015;-55
2022/08/03 03:24:33;;;;;;;0.65;0.10;;;;;;;20.18;100.00;99246.25;7387949;19;20015;-55
2022/08/03 03:27:00;;;;;;;1.33;0.10;;;;;;;20.11;100.00;99237.72;7390158;19;20019;-55
2022/08/03 03:29:26;;;;;;;0.32;0.32;;;;;;;20.00;100.00;99243.69;7390695;19;20371;-55
2022/08/03 03:31:53;;;;;;;0.00;0.00;;;;;;;19.95;100.00;99227.63;7387931;19;20027;-56
2022/08/03 03:34:19;;;;;;;0.00;0.00;;;;;;;19.90;100.00;99234.19;7388293;19;20014;-56
2022/08/03 03:36:46;;;;;;;0.22;0.10;;;;;;;19.91;100.00;99233.63;7390638;19;20471;-54
2022/08/03 03:39:12;;;;;;;0.00;0.00;;;;;;;19.91;100.00;99238.53;7387715;19;20042;-54
2022/08/03 03:41:39;;;;;;;0.75;0.10;;;;;;;19.91;100.00;99236.47;7387044;19;20018;-55
2022/08/03 03:44:05;;;;;;;0.10;0.10;;;;;;;20.00;100.00;99235.19;7393308;19;20016;-55
2022/08/03 03:46:31;;;;;;;0.20;0.10;;;;;;;20.07;100.00;99234.50;7396391;19;20035;-55
2022/08/03 03:48:58;;;;;;;0.00;0.00;;;;;;;20.01;100.00;99242.38;7394337;19;20015;-54
2022/08/03 03:51:24;;;;;;;0.40;0.10;;;;;;;20.01;100.00;99237.47;7394038;19;20014;-55
2022/08/03 03:53:58;;;;;;;0.00;0.00;;;;;;;20.05;100.00;99234.31;7395148;19;20018;-55
2022/08/03 03:56:25;;;;;;;1.65;0.00;;;;;;;20.01;100.00;99233.91;7394347;19;20011;-55
2022/08/03 03:58:51;;;;;;;0.20;0.20;;;;;;;19.97;100.00;99241.97;7394975;19;20007;-56
2022/08/03 04:01:18;;;;;;;0.00;0.00;;;;;;;20.01;100.00;99236.72;7394833;19;20022;-55
2022/08/03 04:03:44;;;;;;;0.63;0.43;;;;;;;20.04;100.00;99235.59;7393784;19;20014;-54
2022/08/03 04:10:57;;;;;;;0.00;0.00;;;;;;;20.00;100.00;99240.84;7393549;19;20017;-54
2022/08/03 04:11:50;;;;;;;0.10;0.10;;;;;;;20.05;100.00;99243.53;7394965;19;20006;-55
2022/08/03 04:14:28;;;;;;;0.00;0.00;;;;;;;20.06;100.00;99242.22;7393709;19;20024;-54
2022/08/03 04:17:02;;;;;;;0.95;0.32;;;;;;;20.02;100.00;99250.28;7396497;19;20342;-54
2022/08/03 04:19:37;;;;;;;0.20;0.10;;;;;;;19.98;100.00;99246.31;7393111;19;20011;-54
2022/08/03 04:22:08;;;;;;;0.43;0.00;;;;;;;19.96;100.00;99249.69;7394354;19;20037;-53
2022/08/03 04:24:45;;;;;;;0.65;0.10;;;;;;;19.91;100.00;99255.50;7393951;19;20018;-53
2022/08/03 04:27:15;;;;;;;0.85;0.00;;;;;;;19.88;100.00;99253.78;7396295;19;20010;-53
2022/08/03 04:29:46;;;;;;;0.00;0.00;;;;;;;19.82;100.00;99253.16;7397743;19;20082;-53
2022/08/03 04:32:13;;;;;;;0.10;0.00;;;;;;;19.77;100.00;99251.25;7393243;19;20366;-53
2022/08/03 04:34:39;;;;;;;0.20;0.10;;;;;;;19.74;100.00;99255.16;7391948;19;20013;-53
2022/08/03 04:37:11;;;;;;;0.10;0.10;;;;;;;19.70;100.00;99252.72;7395395;19;20329;-53
2022/08/03 04:39:40;;;;;;;0.00;0.00;;;;;;;19.68;100.00;99253.25;7393238;19;20498;-53
2022/08/03 04:42:10;;;;;;;0.25;0.03;;;;;;;19.72;100.00;99260.63;7393725;19;20094;-54
2022/08/03 04:44:40;;;;;;;0.25;0.00;;;;;;;19.73;100.00;99257.22;7393009;19;20018;-54
2022/08/03 04:47:07;;;;;;;0.00;0.00;;;;;;;19.74;100.00;99258.00;7396075;19;20038;-53
2022/08/03 04:49:36;;;;;;;0.20;0.10;;;;;;;19.76;100.00;99261.78;7393192;19;20099;-54
2022/08/03 04:52:03;;;;;;;1.10;0.55;;;;;;;19.74;100.00;99258.75;7392369;19;20022;-54
2022/08/03 04:54:38;;;;;;;0.00;0.00;;;;;;;19.80;100.00;99250.13;7391892;19;20356;-53
2022/08/03 04:57:04;;;;;;;0.63;0.10;;;;;;;19.80;100.00;99267.09;7393177;19;20010;-54
2022/08/03 04:59:30;;;;;;;0.00;0.00;;;;;;;19.80;100.00;99262.19;7393628;19;20074;-54
2022/08/03 05:01:57;;;;;;;0.00;0.00;;;;;;;19.77;100.00;99268.22;7391976;19;20443;-54
2022/08/03 05:04:23;;;;;;;0.10;0.10;;;;;;;19.72;100.00;99260.63;7392831;19;20014;-54
2022/08/03 05:06:49;;;;;;;0.00;0.00;;;;;;;19.70;100.00;99271.72;7394993;19;20010;-55
2022/08/03 05:09:15;;;;;;;0.20;0.08;;;;;;;19.72;100.00;99271.91;7391772;19;20038;-55
2022/08/03 05:11:41;;;;;;;0.10;0.00;;;;;;;19.68;100.00;99273.00;7389468;19;20035;-55
2022/08/03 05:14:07;;;;;;;0.17;0.00;;;;;;;19.71;100.00;99278.91;7390911;19;20560;-55
2022/08/03 05:16:34;;;;;;;2.38;0.47;;;;;;;19.69;100.00;99279.44;7392503;19;20086;-55
2022/08/03 05:19:00;;;;;;;0.10;0.00;;;;;;;19.66;100.00;99281.28;7391559;19;20010;-56
2022/08/03 05:21:26;;;;;;;0.20;0.10;;;;;;;19.68;100.00;99281.50;7392148;19;20094;-56
2022/08/03 05:23:52;;;;;;;0.00;0.00;;;;;;;19.64;100.00;99295.22;7392382;19;20011;-57
2022/08/03 05:26:18;;;;;;;0.08;0.00;;;;;;;19.63;100.00;99293.72;7392704;19;20512;-57
2022/08/03 05:28:44;;;;;;;0.10;0.00;;;;;;;19.65;100.00;99285.44;7393456;19;20034;-57
2022/08/03 05:31:12;;;;;;;0.17;0.10;;;;;;;19.67;100.00;99294.13;7391786;19;20789;-57
2022/08/03 05:33:38;;;;;;;0.00;0.00;;;;;;;19.72;100.00;99295.28;7392165;19;20015;-57
2022/08/03 05:36:05;;;;;;;0.10;0.10;;;;;;;19.74;100.00;99289.06;7389644;19;20014;-57
2022/08/03 05:38:32;;;;;;;0.10;0.10;;;;;;;19.70;100.00;99297.16;7390261;19;20524;-57
2022/08/03 05:40:58;;;;;;;0.57;0.17;;;;;;;19.74;100.00;99289.06;7391425;19;20433;-57
2022/08/03 05:43:24;;;;;;;0.05;0.05;;;;;;;19.86;100.00;99290.31;7391866;19;20014;-57
2022/08/03 05:45:50;;;;;;;0.00;0.00;;;;;;;19.86;100.00;99288.22;7391739;19;20015;-57
2022/08/03 05:48:16;;;;;;;0.30;0.20;;;;;;;19.89;100.00;99292.78;7391951;19;20011;-57
2022/08/03 05:50:42;;;;;;;0.00;0.00;;;;;;;19.97;100.00;99290.00;7391006;19;20089;-57
2022/08/03 05:53:09;;;;;;;0.00;0.00;;;;;;;19.95;100.00;99295.47;7390363;19;20453;-57
2022/08/03 05:55:35;;;;;;;0.00;0.00;;;;;;;19.95;100.00;99296.22;7388589;19;20021;-57
2022/08/03 05:58:02;;;;;;;0.00;0.00;;;;;;;19.94;100.00;99300.38;7394640;19;20453;-57
2022/08/03 06:00:29;;;;;;;0.28;0.10;;;;;;;19.88;100.00;99296.91;7394657;19;20007;-57
2022/08/03 06:02:56;;;;;;;0.10;0.00;;;;;;;19.89;100.00;99294.84;7390974;19;20033;-57
2022/08/03 06:05:22;;;;;;;0.10;0.05;;;;;;;19.83;100.00;99302.72;7389123;19;20043;-57
2022/08/03 06:07:48;;;;;;;0.85;0.00;;;;;;;19.81;100.00;99302.53;7394744;19;20444;-58
2022/08/03 06:10:14;;;;;;;0.00;0.00;;;;;;;19.77;100.00;99308.53;7388304;19;20052;-57
2022/08/03 06:12:40;;;;;;;0.00;0.00;;;;;;;19.75;100.00;99313.22;7389856;19;20015;-58
2022/08/03 06:15:07;;;;;;;0.10;0.10;;;;;;;19.73;100.00;99307.34;7387964;19;20051;-58
2022/08/03 06:17:33;;;;;;;0.00;0.00;;;;;;;19.67;100.00;99315.97;7394185;19;20015;-58
2022/08/03 06:20:00;;;;;;;0.10;0.00;;;;;;;19.65;100.00;99316.50;7389560;19;20021;-58
2022/08/03 06:22:26;;;;;;;0.10;0.00;;;;;;;19.57;100.00;99323.41;7389857;19;20047;-58
2022/08/03 06:24:52;;;;;;;0.10;0.10;;;;;;;19.58;100.00;99328.50;7389729;19;20041;-58
2022/08/03 06:27:18;;;;;;;0.10;0.10;;;;;;;19.56;100.00;99322.63;7392378;19;20106;-58
2022/08/03 06:29:44;;;;;;;0.30;0.10;;;;;;;19.57;100.00;99331.88;7393585;19;20067;-58
2022/08/03 06:32:10;;;;;;;0.90;0.13;;;;;;;19.55;100.00;99329.63;7388396;19;20031;-57
2022/08/03 06:34:36;;;;;;;0.13;0.10;;;;;;;19.57;100.00;99341.13;7388326;19;20369;-57
2022/08/03 06:37:02;;;;;;;0.10;0.00;;;;;;;19.56;100.00;99333.94;7392378;19;20019;-58
2022/08/03 06:39:29;;;;;;;0.10;0.10;;;;;;;19.52;100.00;99344.81;7389239;19;20566;-58
2022/08/03 06:41:55;;;;;;;0.10;0.00;;;;;;;19.55;100.00;99338.09;7388923;19;20519;-58
2022/08/03 06:44:21;;;;;;;0.10;0.10;;;;;;;19.60;100.00;99345.66;7388277;19;20038;-58
2022/08/03 06:46:48;;;;;;;0.08;0.00;;;;;;;19.74;100.00;99337.13;7390836;19;20088;-58
2022/08/03 06:49:14;;;;;;;0.25;0.10;;;;;;;19.79;100.00;99345.47;7388238;19;20014;-59
2022/08/03 06:51:40;;;;;;;0.15;0.10;;;;;;;19.84;100.00;99335.34;7388196;19;20007;-58
2022/08/03 06:54:06;;;;;;;0.32;0.10;;;;;;;19.82;100.00;99337.94;7388860;19;20014;-58
2022/08/03 06:56:33;;;;;;;0.20;0.20;;;;;;;19.86;100.00;99344.03;7388698;19;20018;-58
2022/08/03 06:58:59;;;;;;;0.30;0.10;;;;;;;19.91;100.00;99334.63;7391144;19;20010;-58
2022/08/03 07:01:25;;;;;;;1.55;0.00;;;;;;;19.93;100.00;99323.53;7389193;19;20019;-59
2022/08/03 07:03:53;;;;;;;0.10;0.10;;;;;;;19.89;100.00;99325.94;7388286;19;20022;-59
2022/08/03 07:06:19;;;;;;;0.28;0.10;;;;;;;19.85;100.00;99325.53;7390012;19;20011;-59
2022/08/03 07:08:46;;;;;;;0.30;0.25;;;;;;;19.76;100.00;99323.19;7388386;19;20007;-59
2022/08/03 07:11:12;;;;;;;0.10;0.00;;;;;;;19.64;100.00;99337.59;7387937;19;20027;-59
2022/08/03 07:13:40;;;;;;;0.35;0.20;;;;;;;19.48;100.00;99344.41;7388629;19;20034;-59
2022/08/03 07:16:06;;;;;;;0.57;0.20;;;;;;;19.38;100.00;99349.00;7387372;19;20011;-59
2022/08/03 07:18:32;;;;;;;1.05;0.10;;;;;;;19.40;100.00;99349.22;7393334;19;20018;-60
2022/08/03 07:20:58;;;;;;;0.43;0.10;;;;;;;19.45;100.00;99351.16;7395403;19;20079;-59
2022/08/03 07:23:24;;;;;;;0.38;0.10;;;;;;;19.59;100.00;99349.81;7394965;19;20022;-59
2022/08/03 07:25:50;;;;;;;0.77;0.10;;;;;;;19.84;100.00;99353.03;7395418;19;20014;-59
2022/08/03 07:28:17;;;;;;;1.67;0.47;;;;;;;20.02;100.00;99362.59;7395698;19;20010;-59
2022/08/03 07:30:43;;;;;;;0.20;0.10;;;;;;;20.06;100.00;99357.34;7395842;19;20737;-60
2022/08/03 07:33:09;;;;;;;0.50;0.30;;;;;;;20.10;100.00;99357.75;7394529;19;20372;-60
2022/08/03 07:35:35;;;;;;;0.10;0.00;;;;;;;20.08;100.00;99354.72;7393258;19;20070;-60
2022/08/03 07:38:02;;;;;;;0.50;0.30;;;;;;;20.13;100.00;99357.44;7399545;19;20021;-61
2022/08/03 07:40:28;;;;;;;0.50;0.30;;;;;;;20.08;100.00;99358.31;7394935;19;20031;-61
2022/08/03 07:42:54;;;;;;;6.80;0.30;;;;;;;20.04;100.00;99355.09;7393758;19;20014;-60
2022/08/03 07:45:22;;;;;;;0.10;0.10;;;;;;;20.08;100.00;99354.72;7394233;19;20043;-61
2022/08/03 07:47:48;;;;;;;0.40;0.40;;;;;;;20.09;100.00;99350.63;7398804;19;20018;-61
2022/08/03 07:50:14;;;;;;;0.82;0.22;;;;;;;19.92;100.00;99358.75;7393336;19;20011;-60
2022/08/03 07:52:50;;;;;;;0.30;0.00;;;;;;;19.83;100.00;99356.41;7394848;19;20010;-60
2022/08/03 07:55:22;;;;;;;1.35;0.10;;;;;;;19.67;100.00;99356.28;7394151;19;20035;-61
2022/08/03 07:58:16;;;;;;;4.70;0.20;;;;;;;19.53;100.00;99356.88;7398853;19;20086;-61
2022/08/03 08:00:43;;;;;;;0.63;0.10;;;;;;;19.46;100.00;99372.44;7398456;19;20029;-61
2022/08/03 08:03:11;;;;;;;0.70;0.20;;;;;;;19.49;100.00;99362.13;7393728;19;20081;-61
2022/08/03 08:05:37;;;;;;;0.50;0.22;;;;;;;19.50;100.00;99364.38;7394416;19;20010;-61
2022/08/03 08:08:04;;;;;;;1.85;0.20;;;;;;;19.52;100.00;99366.66;7394440;19;20047;-61
2022/08/03 08:10:31;;;;;;;0.30;0.25;;;;;;;19.54;100.00;99369.69;7392664;19;20010;-60
2022/08/03 08:12:58;;;;;;;1.20;0.15;;;;;;;19.63;100.00;99370.00;7394118;19;20014;-60
2022/08/03 08:15:24;;;;;;;1.08;0.30;;;;;;;19.63;100.00;99383.34;7393342;19;20434;-61
2022/08/03 08:17:53;;;;;;;1.75;0.32;;;;;;;19.66;100.00;99385.09;7398166;19;20021;-60
2022/08/03 08:20:25;;;;;;;2.17;0.35;;;;;;;19.66;100.00;99374.53;7393283;19;20519;-60
2022/08/03 08:22:51;;;;;;;1.17;0.70;;;;;;;19.71;100.00;99380.63;7392439;19;20621;-60
2022/08/03 08:25:17;;;;;;;1.45;0.30;;;;;;;19.74;100.00;99376.66;7393028;19;20023;-60
2022/08/03 08:27:46;;;;;;;0.10;0.10;;;;;;;19.74;100.00;99373.84;7396841;19;20011;-61
2022/08/03 08:30:13;;;;;;;2.20;0.95;;;;;;;19.78;100.00;99380.69;7395689;19;20044;-61
2022/08/03 08:32:40;;;;;;;2.00;0.25;;;;;;;19.83;100.00;99374.13;7394234;19;20011;-60
2022/08/03 08:35:07;;;;;;;0.60;0.17;;;;;;;19.96;100.00;99376.13;7391145;19;20014;-61
2022/08/03 08:37:34;;;;;;;0.95;0.40;;;;;;;20.19;100.00;99377.06;7396984;19;20011;-62
2022/08/03 08:40:00;;;;;;;0.32;0.10;;;;;;;20.26;100.00;99370.75;7391107;19;20025;-59
2022/08/03 08:42:26;;;;;;;5.43;0.60;;;;;;;20.49;100.00;99376.59;7393316;19;20054;-61
2022/08/03 08:44:53;;;;;;;0.35;0.10;;;;;;;20.78;100.00;99364.69;7392034;19;20010;-60
2022/08/03 08:47:24;;;;;;;5.07;0.40;;;;;;;20.73;100.00;99374.06;7394906;19;20006;-60
2022/08/03 08:49:54;;;;;;;0.52;0.35;;;;;;;20.78;100.00;99380.91;7391448;19;20457;-59
2022/08/03 08:52:26;;;;;;;0.57;0.30;;;;;;;20.85;100.00;99386.63;7390977;19;20025;-59
2022/08/03 08:55:02;;;;;;;4.68;0.10;;;;;;;20.88;100.00;99384.72;7391555;19;20010;-59
2022/08/03 08:57:40;;;;;;;7.32;0.50;;;;;;;20.87;100.00;99375.50;7395363;19;20038;-59
2022/08/03 09:00:09;;;;;;;1.08;0.25;;;;;;;20.80;100.00;99383.94;7396209;19;20010;-59
2022/08/03 09:02:36;;;;;;;0.10;0.10;;;;;;;20.75;100.00;99376.34;7392238;19;20034;-59
2022/08/03 09:05:03;;;;;;;0.98;0.55;;;;;;;20.86;100.00;99376.78;7391901;19;20014;-60
2022/08/03 09:07:29;;;;;;;0.13;0.00;;;;;;;20.92;100.00;99373.81;7395778;19;20010;-58
2022/08/03 09:09:55;;;;;;;0.68;0.45;;;;;;;21.19;100.00;99368.66;7389144;19;20048;-59
2022/08/03 09:12:21;;;;;;;1.45;0.45;;;;;;;21.31;100.00;99375.50;7392097;19;20011;-58
2022/08/03 09:14:48;;;;;;;0.30;0.30;;;;;;;21.14;100.00;99378.81;7390727;19;20027;-58
2022/08/03 09:17:14;;;;;;;0.65;0.35;;;;;;;21.00;100.00;99381.03;7394076;19;20037;-59
2022/08/03 09:19:41;;;;;;;0.57;0.20;;;;;;;21.22;100.00;99373.22;7390071;19;20040;-58
2022/08/03 09:22:11;;;;;;;2.50;0.85;;;;;;;21.27;100.00;99381.53;7391809;19;20471;-58
2022/08/03 09:24:54;;;;;;;1.38;0.20;;;;;;;21.21;100.00;99377.34;7391678;19;20498;-58
2022/08/03 09:27:21;;;;;;;1.88;0.10;;;;;;;21.48;100.00;99379.34;7394427;19;20348;-58
2022/08/03 09:29:48;;;;;;;0.38;0.30;;;;;;;21.70;100.00;99378.63;7395081;19;20482;-59
2022/08/03 09:32:15;;;;;;;4.13;0.20;;;;;;;21.90;100.00;99382.66;7391628;19;20031;-58
2022/08/03 09:34:41;;;;;;;0.35;0.10;;;;;;;21.87;100.00;99383.78;7389467;19;20027;-58
2022/08/03 09:37:15;;;;;;;0.65;0.20;;;;;;;21.93;100.00;99383.59;7393371;19;20021;-59
2022/08/03 09:39:42;;;;;;;1.35;0.55;;;;;;;21.98;100.00;99383.44;7389797;19;20007;-58
2022/08/03 09:42:14;;;;;;;0.10;0.00;;;;;;;22.05;100.00;99391.16;7386267;19;20022;-58
2022/08/03 09:44:43;;;;;;;1.77;0.20;;;;;;;22.06;100.00;99378.50;7388821;19;20360;-58
2022/08/03 09:47:10;;;;;;;0.28;0.15;;;;;;;22.00;100.00;99388.53;7392822;19;20018;-58
2022/08/03 09:49:38;;;;;;;2.05;0.20;;;;;;;22.20;100.00;99373.41;7389641;19;20027;-58
2022/08/03 09:52:17;;;;;;;0.40;0.20;;;;;;;22.53;100.00;99389.25;7389839;19;20019;-59
2022/08/03 09:54:49;;;;;;;1.48;0.17;;;;;;;22.85;100.00;99385.84;7389265;19;20031;-59
2022/08/03 09:57:24;;;;;;;1.80;0.10;;;;;;;22.97;100.00;99392.59;7393000;19;20341;-59
2022/08/03 09:59:52;;;;;;;3.33;0.38;;;;;;;23.24;100.00;99390.78;7393874;19;20633;-59
2022/08/03 10:02:24;;;;;;;0.10;0.00;;;;;;;23.55;100.00;99388.59;7390731;19;20011;-58
2022/08/03 10:04:51;;;;;;;1.95;0.20;;;;;;;23.63;100.00;99389.31;7390122;19;20383;-58
2022/08/03 10:07:19;;;;;;;0.85;0.10;;;;;;;23.65;100.00;99395.91;7393001;19;20019;-60
2022/08/03 10:09:54;;;;;;;1.48;0.35;;;;;;;23.85;100.00;99394.84;7390035;19;20019;-59
2022/08/03 10:12:21;;;;;;;1.02;0.25;;;;;;;23.88;100.00;99393.69;7390775;19;20039;-59
2022/08/03 10:14:47;;;;;;;2.33;0.20;;;;;;;23.90;100.00;99396.72;7387642;19;20471;-59
2022/08/03 10:17:13;;;;;;;0.88;0.13;;;;;;;23.93;100.00;99394.81;7392800;19;20014;-58
2022/08/03 10:19:40;;;;;;;0.08;0.00;;;;;;;23.82;100.00;99401.69;7388506;19;20015;-59
2022/08/03 10:22:13;;;;;;;0.55;0.10;;;;;;;23.77;100.00;99399.84;7389268;19;20646;-58
2022/08/03 10:25:02;;;;;;;0.63;0.10;;;;;;;24.14;100.00;99400.94;7390491;19;20011;-59
2022/08/03 10:27:50;;;;;;;1.52;0.10;;;;;;;24.24;100.00;99403.88;7393206;19;20006;-59
2022/08/03 10:30:16;;;;;;;0.55;0.10;;;;;;;24.08;100.00;99400.41;7393268;19;20017;-58
2022/08/03 10:32:53;;;;;;;2.13;0.20;;;;;;;24.08;100.00;99400.41;7389894;19;20017;-57
2022/08/03 10:35:20;;;;;;;0.40;0.10;;;;;;;24.23;100.00;99396.69;7389004;19;20019;-55
2022/08/03 10:38:22;;;;;;;0.32;0.32;;;;;;;24.33;100.00;99409.69;7392054;19;20036;-55
2022/08/03 10:40:53;;;;;;;0.10;0.03;;;;;;;24.21;100.00;99402.22;7388525;19;20015;-56
2022/08/03 10:43:32;;;;;;;1.15;0.35;;;;;;;24.09;100.00;99413.28;7389531;19;20017;-56
2022/08/03 10:45:59;;;;;;;0.50;0.00;;;;;;;24.09;100.00;99414.03;7389762;19;20006;-57
2022/08/03 10:48:26;;;;;;;1.35;0.10;;;;;;;24.23;100.00;99411.69;7388419;19;20471;-57
2022/08/03 10:50:52;;;;;;;2.95;0.30;;;;;;;24.49;100.00;99413.16;7386602;19;20014;-56
2022/08/03 10:53:36;;;;;;;2.38;0.20;;;;;;;24.79;100.00;99404.34;7392176;19;20014;-56
2022/08/03 10:58:50;;;;;;;2.15;0.10;;;;;;;25.04;100.00;99412.81;7397076;19;20759;-58
2022/08/03 11:01:18;;;;;;;0.55;0.25;;;;;;;24.79;100.00;99404.34;7399743;19;20015;-59
2022/08/03 11:04:07;;;;;;;1.27;0.40;;;;;;;24.49;100.00;99410.31;7396194;19;20062;-58
2022/08/03 11:06:33;;;;;;;0.30;0.30;;;;;;;24.16;100.00;99409.63;7397498;19;20020;-57
2022/08/03 11:09:08;;;;;;;3.20;0.15;;;;;;;23.96;100.00;99410.69;7395634;19;20014;-56
2022/08/03 11:11:42;;;;;;;0.10;0.03;;;;;;;24.03;100.00;99409.91;7397138;19;20491;-56
2022/08/03 11:14:10;;;;;;;0.63;0.10;;;;;;;24.13;100.00;99410.06;7396198;19;20021;-58
2022/08/03 11:16:44;;;;;;;0.45;0.00;;;;;;;24.07;100.00;99410.28;7395342;19;20117;-56
2022/08/03 11:19:21;;;;;;;0.20;0.10;;;;;;;24.13;100.00;99404.38;7396310;19;20367;-56
2022/08/03 11:21:47;;;;;;;0.32;0.13;;;;;;;24.19;100.00;99417.00;7396017;19;20043;-57
2022/08/03 11:24:35;;;;;;;2.45;0.30;;;;;;;24.35;100.00;99407.00;7395746;19;20017;-56
2022/08/03 11:27:13;;;;;;;0.43;0.20;;;;;;;24.58;100.00;99412.50;7397776;19;20613;-56
2022/08/03 11:30:18;;;;;;;1.27;0.10;;;;;;;24.60;100.00;99401.28;7399196;19;20392;-54
2022/08/03 11:32:46;;;;;;;1.50;0.20;;;;;;;24.63;100.00;99408.66;7394782;19;20085;-56
2022/08/03 11:35:22;;;;;;;3.13;0.10;;;;;;;24.72;100.00;99405.91;7394268;19;20011;-57
2022/08/03 11:37:57;;;;;;;3.75;0.20;;;;;;;24.89;100.00;99419.44;7399828;19;20014;-56
2022/08/03 11:40:48;;;;;;;3.20;0.20;;;;;;;24.77;100.00;99407.03;7395312;19;20006;-55